createdAt,value
2023-01-08T00:01:49.538Z,8.22
2023-01-08T00:04:18.118Z,8.39
2023-01-08T00:06:45.672Z,8.36
2023-01-08T00:09:13.285Z,8.29
2023-01-08T00:11:41.045Z,8.33
2023-01-08T00:14:08.546Z,8.32
2023-01-08T00:16:36.097Z,8.34
2023-01-08T00:19:03.802Z,8.30
2023-01-08T00:21:31.203Z,8.27
2023-01-08T00:23:58.648Z,8.26
2023-01-08T00:26:26.210Z,8.25
2023-01-08T00:28:54.241Z,8.28
2023-01-08T00:31:22.166Z,8.12
2023-01-08T00:33:49.641Z,8.00
2023-01-08T00:36:19.381Z,8.06
2023-01-08T00:38:47.260Z,8.16
2023-01-08T00:41:16.085Z,8.24
2023-01-08T00:43:43.554Z,8.26
2023-01-08T00:46:11.121Z,8.31
2023-01-08T00:48:41.463Z,8.27
2023-01-08T00:51:09.427Z,8.15
2023-01-08T00:53:38.317Z,8.15
2023-01-08T00:56:09.150Z,8.09
2023-01-08T00:58:37.084Z,8.13
2023-01-08T01:01:10.978Z,8.24
2023-01-08T01:03:38.802Z,8.31
2023-01-08T01:06:07.193Z,8.27
2023-01-08T01:08:35.425Z,8.35
2023-01-08T01:11:10.968Z,8.24
2023-01-08T01:13:38.465Z,8.27
2023-01-08T01:16:06.165Z,8.22
2023-01-08T01:18:33.703Z,8.21
2023-01-08T01:21:01.248Z,8.26
2023-01-08T01:23:28.763Z,8.22
2023-01-08T01:25:56.369Z,8.20
2023-01-08T01:28:23.819Z,8.19
2023-01-08T01:30:56.594Z,8.25
2023-01-08T01:33:24.244Z,8.22
2023-01-08T01:36:00.034Z,8.29
2023-01-08T01:38:27.675Z,8.30
2023-01-08T01:40:55.450Z,8.28
2023-01-08T01:43:40.456Z,8.28
2023-01-08T01:46:24.213Z,8.28
2023-01-08T01:48:56.650Z,8.20
2023-01-08T01:51:29.383Z,8.28
2023-01-08T01:53:57.557Z,8.25
2023-01-08T01:56:25.100Z,8.29
2023-01-08T01:58:52.479Z,8.20
2023-01-08T02:01:20.323Z,8.27
2023-01-08T02:03:47.949Z,8.22
2023-01-08T02:06:37.969Z,8.10
2023-01-08T02:09:15.147Z,8.08
2023-01-08T02:11:45.372Z,8.15
2023-01-08T02:14:44.836Z,8.22
2023-01-08T02:17:20.091Z,8.24
2023-01-08T02:19:57.416Z,8.15
2023-01-08T02:22:44.842Z,8.12
2023-01-08T02:25:57.115Z,7.94
2023-01-08T02:28:26.568Z,8.06
2023-01-08T02:30:55.547Z,8.04
2023-01-08T02:33:24.143Z,8.04
2023-01-08T02:36:14.108Z,8.13
2023-01-08T02:38:54.154Z,8.11
2023-01-08T02:41:28.824Z,8.06
2023-01-08T02:43:59.170Z,8.13
2023-01-08T02:46:34.347Z,8.06
2023-01-08T02:49:10.369Z,8.09
2023-01-08T02:51:43.221Z,7.99
2023-01-08T02:54:18.108Z,8.07
2023-01-08T02:56:59.400Z,8.05
2023-01-08T02:59:29.627Z,8.10
2023-01-08T03:01:57.895Z,8.18
2023-01-08T03:04:27.938Z,8.11
2023-01-08T03:06:55.440Z,7.92
2023-01-08T03:09:23.923Z,8.06
2023-01-08T03:12:02.300Z,7.99
2023-01-08T03:14:39.334Z,8.04
2023-01-08T03:17:09.575Z,8.00
2023-01-08T03:19:42.870Z,7.95
2023-01-08T03:22:13.592Z,7.98
2023-01-08T03:24:44.087Z,7.95
2023-01-08T03:27:18.590Z,8.08
2023-01-08T03:29:49.071Z,8.18
2023-01-08T03:32:18.732Z,8.20
2023-01-08T03:34:49.302Z,8.23
2023-01-08T03:37:22.870Z,8.17
2023-01-08T03:40:14.407Z,8.20
2023-01-08T03:42:42.059Z,8.21
2023-01-08T03:45:09.974Z,8.00
2023-01-08T03:47:39.674Z,7.98
2023-01-08T03:50:11.345Z,8.08
2023-01-08T03:52:38.682Z,8.18
2023-01-08T03:55:06.184Z,8.09
2023-01-08T03:57:33.629Z,8.20
2023-01-08T04:00:01.449Z,8.27
2023-01-08T04:02:29.494Z,8.28
2023-01-08T04:04:57.212Z,8.31
2023-01-08T04:07:24.667Z,8.30
2023-01-08T04:09:52.131Z,8.37
2023-01-08T04:12:19.574Z,8.14
2023-01-08T04:14:47.051Z,8.15
2023-01-08T04:17:14.520Z,8.22
2023-01-08T04:19:42.048Z,8.01
2023-01-08T04:22:11.105Z,8.01
2023-01-08T04:24:42.887Z,8.08
2023-01-08T04:27:10.473Z,8.17
2023-01-08T04:29:38.032Z,8.17
2023-01-08T04:32:05.491Z,8.21
2023-01-08T04:34:33.162Z,8.15
2023-01-08T04:37:00.792Z,8.16
2023-01-08T04:39:28.247Z,8.12
2023-01-08T04:41:55.750Z,8.16
2023-01-08T04:44:23.296Z,8.20
2023-01-08T04:46:50.856Z,8.13
2023-01-08T04:49:18.304Z,8.21
2023-01-08T04:51:45.713Z,8.12
2023-01-08T04:54:13.128Z,8.20
2023-01-08T04:56:40.548Z,8.16
2023-01-08T04:59:07.950Z,8.18
2023-01-08T05:01:35.739Z,8.19
2023-01-08T05:04:05.075Z,8.13
2023-01-08T05:06:33.001Z,8.22
2023-01-08T05:09:00.527Z,8.04
2023-01-08T05:11:28.209Z,8.17
2023-01-08T05:13:56.585Z,8.19
2023-01-08T05:16:24.214Z,8.20
2023-01-08T05:18:51.875Z,8.16
2023-01-08T05:21:19.413Z,8.21
2023-01-08T05:23:47.857Z,8.22
2023-01-08T05:26:16.480Z,8.31
2023-01-08T05:28:44.200Z,8.26
2023-01-08T05:31:11.933Z,8.31
2023-01-08T05:33:40.100Z,8.17
2023-01-08T05:36:09.122Z,8.17
2023-01-08T05:38:36.964Z,8.23
2023-01-08T05:41:05.431Z,8.17
2023-01-08T05:43:33.404Z,8.23
2023-01-08T05:46:02.001Z,8.14
2023-01-08T05:48:30.926Z,8.06
2023-01-08T05:50:58.399Z,8.10
2023-01-08T05:53:25.909Z,8.13
2023-01-08T05:55:58.968Z,8.09
2023-01-08T05:58:27.293Z,8.12
2023-01-08T06:01:02.279Z,8.15
2023-01-08T06:03:29.680Z,8.22
2023-01-08T06:06:02.527Z,8.20
2023-01-08T06:08:30.818Z,8.15
2023-01-08T06:11:04.205Z,8.01
2023-01-08T06:13:32.604Z,8.07
2023-01-08T06:16:00.760Z,8.12
2023-01-08T06:18:29.581Z,8.03
2023-01-08T06:20:57.152Z,8.02
2023-01-08T06:23:24.551Z,8.00
2023-01-08T06:25:56.650Z,8.00
2023-01-08T06:28:24.601Z,7.91
2023-01-08T06:30:52.433Z,7.92
2023-01-08T06:33:21.457Z,7.79
2023-01-08T06:35:49.091Z,7.85
2023-01-08T06:38:19.299Z,7.77
2023-01-08T06:40:47.733Z,7.97
2023-01-08T06:43:16.067Z,8.07
2023-01-08T06:45:43.489Z,7.92
2023-01-08T06:48:10.920Z,7.95
2023-01-08T06:50:38.534Z,7.83
2023-01-08T06:53:06.039Z,7.84
2023-01-08T06:55:33.512Z,7.93
2023-01-08T06:58:00.912Z,8.01
2023-01-08T07:00:31.969Z,8.12
2023-01-08T07:03:00.803Z,8.08
2023-01-08T07:05:28.417Z,8.02
2023-01-08T07:07:59.034Z,8.14
2023-01-08T07:10:27.541Z,8.09
2023-01-08T07:12:54.964Z,8.08
2023-01-08T07:15:22.490Z,8.04
2023-01-08T07:17:50.037Z,8.16
2023-01-08T07:20:17.778Z,8.07
2023-01-08T07:22:45.343Z,8.15
2023-01-08T07:25:12.827Z,8.10
2023-01-08T07:27:40.291Z,8.24
2023-01-08T07:30:11.019Z,8.27
2023-01-08T07:32:45.591Z,8.38
2023-01-08T07:35:12.995Z,8.31
2023-01-08T07:37:41.259Z,8.22
2023-01-08T07:40:10.858Z,8.24
2023-01-08T07:42:38.800Z,8.22
2023-01-08T07:45:07.998Z,8.24
2023-01-08T07:47:35.459Z,8.25
2023-01-08T07:50:03.266Z,8.21
2023-01-08T07:52:30.700Z,8.23
2023-01-08T07:54:58.032Z,8.22
2023-01-08T07:57:25.879Z,8.19
2023-01-08T07:59:53.222Z,8.28
2023-01-08T08:02:20.721Z,8.31
2023-01-08T08:04:48.473Z,8.28
2023-01-08T08:07:16.461Z,8.32
2023-01-08T08:09:43.909Z,8.32
2023-01-08T08:12:11.298Z,8.31
2023-01-08T08:14:38.736Z,8.30
2023-01-08T08:17:06.179Z,8.23
2023-01-08T08:19:33.647Z,8.29
2023-01-08T08:22:02.010Z,8.26
2023-01-08T08:24:29.419Z,8.26
2023-01-08T08:26:56.899Z,8.31
2023-01-08T08:29:24.299Z,8.33
2023-01-08T08:31:55.474Z,8.31
2023-01-08T08:34:23.102Z,8.28
2023-01-08T08:36:50.733Z,8.22
2023-01-08T08:39:19.665Z,8.26
2023-01-08T08:41:47.092Z,8.19
2023-01-08T08:44:14.470Z,8.30
2023-01-08T08:46:42.373Z,8.43
2023-01-08T08:49:09.895Z,8.60
2023-01-08T08:51:41.209Z,8.53
2023-01-08T08:54:09.878Z,8.49
2023-01-08T08:56:37.341Z,8.42
2023-01-08T08:59:04.878Z,8.47
2023-01-08T09:01:32.578Z,8.42
2023-01-08T09:04:00.187Z,8.43
2023-01-08T09:06:27.781Z,8.70
2023-01-08T09:08:55.339Z,8.67
2023-01-08T09:11:22.776Z,8.57
2023-01-08T09:13:50.125Z,8.53
2023-01-08T09:16:20.704Z,8.33
2023-01-08T09:18:50.669Z,8.42
2023-01-08T09:21:25.804Z,8.31
2023-01-08T09:23:53.533Z,8.27
2023-01-08T09:26:21.048Z,8.29
2023-01-08T09:28:48.493Z,8.41
2023-01-08T09:31:16.024Z,8.30
2023-01-08T09:33:43.396Z,8.16
2023-01-08T09:36:17.161Z,8.24
2023-01-08T09:38:48.133Z,8.34
2023-01-08T09:41:20.725Z,8.39
2023-01-08T09:43:51.809Z,8.28
2023-01-08T09:46:23.337Z,8.30
2023-01-08T09:48:52.699Z,8.30
2023-01-08T09:51:21.489Z,8.31
2023-01-08T09:53:55.673Z,8.32
2023-01-08T09:56:23.474Z,8.37
2023-01-08T09:58:55.748Z,8.38
2023-01-08T10:01:46.285Z,8.39
2023-01-08T10:04:21.436Z,8.24
2023-01-08T10:07:06.087Z,8.43
2023-01-08T10:09:34.684Z,8.44
2023-01-08T10:12:05.191Z,8.42
2023-01-08T10:14:37.636Z,8.43
2023-01-08T10:17:18.830Z,8.45
2023-01-08T10:19:46.278Z,8.38
2023-01-08T10:22:17.658Z,8.29
2023-01-08T10:24:45.374Z,8.31
2023-01-08T10:27:15.230Z,8.44
2023-01-08T10:29:44.172Z,8.33
2023-01-08T10:32:34.632Z,8.36
2023-01-08T10:35:07.878Z,8.39
2023-01-08T10:37:42.479Z,8.39
2023-01-08T10:40:49.595Z,8.47
2023-01-08T10:43:20.585Z,8.39
2023-01-08T10:46:01.839Z,8.32
2023-01-08T10:48:37.561Z,8.10
2023-01-08T10:51:17.478Z,8.11
2023-01-08T10:53:45.388Z,8.12
2023-01-08T10:56:40.981Z,8.20
2023-01-08T10:59:22.152Z,8.17
2023-01-08T11:01:52.563Z,8.08
2023-01-08T11:04:36.334Z,8.16
2023-01-08T11:07:06.896Z,8.11
2023-01-08T11:09:42.411Z,8.23
2023-01-08T11:12:33.104Z,8.00
2023-01-08T11:15:00.729Z,7.97
2023-01-08T11:17:32.396Z,7.96
2023-01-08T11:20:23.735Z,7.99
2023-01-08T11:22:51.245Z,7.95
2023-01-08T11:25:29.872Z,8.00
2023-01-08T11:27:59.470Z,8.07
2023-01-08T11:30:32.360Z,8.11
2023-01-08T11:33:06.834Z,7.91
2023-01-08T11:35:42.377Z,7.97
2023-01-08T11:38:13.638Z,8.02
2023-01-08T11:41:03.912Z,8.16
2023-01-08T11:43:40.259Z,8.11
2023-01-08T11:46:42.846Z,8.19
2023-01-08T11:49:19.785Z,8.19
2023-01-08T11:51:47.108Z,8.20
2023-01-08T11:54:45.874Z,8.14
2023-01-08T11:57:44.519Z,8.16
2023-01-08T12:00:27.222Z,8.21
2023-01-08T12:02:57.022Z,8.15
2023-01-08T12:05:32.740Z,8.21
2023-01-08T12:08:05.468Z,8.18
2023-01-08T12:11:09.417Z,8.25
2023-01-08T12:13:47.968Z,8.16
2023-01-08T12:16:39.614Z,8.17
2023-01-08T12:19:12.795Z,8.28
2023-01-08T12:22:01.171Z,8.30
2023-01-08T12:24:40.837Z,8.39
2023-01-08T12:27:48.457Z,8.17
2023-01-08T12:30:17.832Z,8.14
2023-01-08T12:33:30.504Z,7.99
2023-01-08T12:36:01.478Z,7.96
2023-01-08T12:38:33.277Z,8.01
2023-01-08T12:41:10.008Z,7.98
2023-01-08T12:43:49.513Z,8.07
2023-01-08T12:46:18.446Z,8.13
2023-01-08T12:48:50.857Z,8.00
2023-01-08T12:51:48.841Z,8.07
2023-01-08T12:54:50.293Z,8.00
2023-01-08T12:57:38.932Z,8.12
2023-01-08T13:00:23.278Z,8.10
2023-01-08T13:02:58.972Z,8.03
2023-01-08T13:05:26.915Z,8.01
2023-01-08T13:08:20.234Z,8.00
2023-01-08T13:10:55.352Z,8.02
2023-01-08T13:13:26.609Z,8.09
2023-01-08T13:16:20.150Z,8.08
2023-01-08T13:19:02.635Z,7.97
2023-01-08T13:21:37.253Z,8.03
2023-01-08T13:24:29.788Z,7.89
2023-01-08T13:27:09.193Z,7.89
2023-01-08T13:29:39.899Z,7.88
2023-01-08T13:32:25.586Z,7.95
2023-01-08T13:35:22.357Z,7.95
2023-01-08T13:37:52.867Z,7.76
2023-01-08T13:40:39.699Z,7.91
2023-01-08T13:43:31.458Z,7.73
2023-01-08T13:46:01.942Z,7.70
2023-01-08T13:48:47.587Z,7.62
2023-01-08T13:51:41.969Z,7.64
2023-01-08T13:54:12.446Z,7.68
2023-01-08T13:56:45.576Z,7.60
2023-01-08T13:59:25.369Z,7.69
2023-01-08T14:01:55.297Z,7.60
2023-01-08T14:04:24.099Z,7.76
2023-01-08T14:06:51.703Z,7.64
2023-01-08T14:09:24.127Z,7.64
2023-01-08T14:11:57.907Z,7.65
2023-01-08T14:14:25.390Z,7.66
2023-01-08T14:16:53.436Z,7.65
2023-01-08T14:19:23.394Z,7.60
2023-01-08T14:21:52.937Z,7.58
2023-01-08T14:24:24.114Z,7.48
2023-01-08T14:26:57.129Z,7.63
2023-01-08T14:29:29.605Z,7.56
2023-01-08T14:32:00.382Z,7.60
2023-01-08T14:34:31.157Z,7.58
2023-01-08T14:36:58.698Z,7.61
2023-01-08T14:39:32.598Z,7.64
2023-01-08T14:42:26.189Z,7.65
2023-01-08T14:45:07.593Z,7.61
2023-01-08T14:47:39.155Z,7.69
2023-01-08T14:50:07.155Z,7.67
2023-01-08T14:52:40.810Z,7.65
2023-01-08T14:55:18.840Z,7.62
2023-01-08T14:57:52.868Z,7.63
2023-01-08T15:00:27.310Z,7.75
2023-01-08T15:02:55.525Z,7.69
2023-01-08T15:05:29.330Z,7.64
2023-01-08T15:08:03.051Z,7.56
2023-01-08T15:10:42.011Z,7.66
2023-01-08T15:13:23.786Z,7.64
2023-01-08T15:15:58.647Z,7.65
2023-01-08T15:18:26.814Z,7.57
2023-01-08T15:20:55.304Z,7.59
2023-01-08T15:23:32.783Z,7.57
2023-01-08T15:26:00.366Z,7.70
2023-01-08T15:28:27.751Z,7.79
2023-01-08T15:30:56.600Z,7.88
2023-01-08T15:33:26.307Z,7.88
2023-01-08T15:35:53.703Z,7.93
2023-01-08T15:38:23.588Z,8.00
2023-01-08T15:40:53.326Z,8.14
2023-01-08T15:43:21.667Z,8.09
2023-01-08T15:45:51.215Z,8.02
2023-01-08T15:48:18.774Z,8.00
2023-01-08T15:50:46.336Z,7.95
2023-01-08T15:53:18.204Z,7.82
2023-01-08T15:55:46.962Z,7.80
2023-01-08T15:58:15.534Z,7.81
2023-01-08T16:00:45.856Z,7.80
2023-01-08T16:03:14.487Z,7.85
2023-01-08T16:05:41.991Z,7.89
2023-01-08T16:08:10.581Z,7.96
2023-01-08T16:10:38.306Z,7.87
2023-01-08T16:13:05.642Z,7.88
2023-01-08T16:15:33.167Z,7.86
2023-01-08T16:18:00.573Z,7.85
2023-01-08T16:20:27.980Z,7.91
2023-01-08T16:22:56.669Z,7.89
2023-01-08T16:25:24.792Z,7.75
2023-01-08T16:27:52.988Z,7.81
2023-01-08T16:30:20.665Z,7.96
2023-01-08T16:32:52.983Z,7.97
2023-01-08T16:35:21.833Z,7.95
2023-01-08T16:37:49.178Z,7.91
2023-01-08T16:40:16.746Z,7.92
2023-01-08T16:42:44.099Z,7.86
2023-01-08T16:45:11.506Z,7.90
2023-01-08T16:47:39.202Z,7.84
2023-01-08T16:50:07.749Z,7.90
2023-01-08T16:52:37.989Z,7.85
2023-01-08T16:55:06.546Z,7.83
2023-01-08T16:57:33.954Z,7.82
2023-01-08T17:00:01.616Z,7.79
2023-01-08T17:02:29.165Z,7.80
2023-01-08T17:04:56.520Z,7.72
2023-01-08T17:07:24.357Z,7.77
2023-01-08T17:09:51.712Z,7.86
2023-01-08T17:12:22.627Z,8.05
2023-01-08T17:14:50.901Z,8.11
2023-01-08T17:17:18.381Z,7.96
2023-01-08T17:19:46.637Z,7.90
2023-01-08T17:22:14.162Z,7.92
2023-01-08T17:24:41.615Z,7.93
2023-01-08T17:27:08.987Z,8.00
2023-01-08T17:29:36.423Z,7.89
2023-01-08T17:32:04.055Z,7.84
2023-01-08T17:34:31.484Z,7.93
2023-01-08T17:36:58.834Z,7.94
2023-01-08T17:39:26.355Z,7.85
2023-01-08T17:42:11.843Z,7.91
2023-01-08T17:44:39.254Z,7.95
2023-01-08T17:47:06.778Z,7.97
2023-01-08T17:49:34.190Z,7.88
2023-01-08T17:52:01.654Z,7.84
2023-01-08T17:54:29.121Z,7.87
2023-01-08T17:56:56.521Z,7.89
2023-01-08T17:59:24.072Z,7.89
2023-01-08T18:01:52.932Z,7.84
2023-01-08T18:04:20.414Z,8.02
2023-01-08T18:06:47.779Z,7.94
2023-01-08T18:09:15.182Z,7.90
2023-01-08T18:11:43.387Z,7.85
2023-01-08T18:14:13.263Z,7.98
2023-01-08T18:16:45.434Z,7.91
2023-01-08T18:19:13.750Z,7.88
2023-01-08T18:21:41.880Z,7.81
2023-01-08T18:24:10.170Z,7.80
2023-01-08T18:26:38.088Z,7.84
2023-01-08T18:29:05.666Z,7.85
2023-01-08T18:31:33.115Z,7.78
2023-01-08T18:34:00.536Z,7.84
2023-01-08T18:36:28.019Z,7.84
2023-01-08T18:38:57.287Z,7.90
2023-01-08T18:41:43.076Z,7.98
2023-01-08T18:44:10.697Z,8.00
2023-01-08T18:46:38.381Z,8.01
2023-01-08T18:49:05.794Z,8.09
2023-01-08T18:51:33.382Z,8.11
2023-01-08T18:54:00.798Z,8.15
2023-01-08T18:56:30.764Z,8.13
2023-01-08T18:58:58.609Z,8.09
2023-01-08T19:01:26.272Z,8.08
2023-01-08T19:03:53.994Z,7.93
2023-01-08T19:06:21.777Z,7.96
2023-01-08T19:08:49.364Z,7.89
2023-01-08T19:11:16.952Z,7.93
2023-01-08T19:13:44.484Z,7.94
2023-01-08T19:16:13.756Z,7.95
2023-01-08T19:18:41.493Z,7.98
2023-01-08T19:21:09.691Z,8.02
2023-01-08T19:23:36.995Z,8.09
2023-01-08T19:26:29.888Z,8.12
2023-01-08T19:28:57.422Z,7.98
2023-01-08T19:31:24.835Z,7.96
2023-01-08T19:33:52.938Z,7.99
2023-01-08T19:36:21.196Z,7.98
2023-01-08T19:38:48.712Z,7.93
2023-01-08T19:41:35.041Z,7.92
2023-01-08T19:44:02.771Z,7.97
2023-01-08T19:46:31.131Z,7.90
2023-01-08T19:49:00.000Z,7.87
2023-01-08T19:51:28.815Z,7.80
2023-01-08T19:53:57.247Z,7.77
2023-01-08T19:56:25.004Z,7.81
2023-01-08T19:58:52.502Z,7.81
2023-01-08T20:01:22.815Z,7.80
2023-01-08T20:03:50.552Z,7.84
2023-01-08T20:06:20.812Z,7.93
2023-01-08T20:08:54.306Z,7.86
2023-01-08T20:11:22.497Z,7.88
2023-01-08T20:13:50.975Z,7.88
2023-01-08T20:16:21.177Z,7.87
2023-01-08T20:18:49.833Z,7.99
2023-01-08T20:21:24.064Z,8.08
2023-01-08T20:23:59.779Z,7.99
2023-01-08T20:26:29.208Z,7.84
2023-01-08T20:28:57.869Z,8.00
2023-01-08T20:31:36.890Z,8.01
2023-01-08T20:34:10.713Z,8.02
2023-01-08T20:36:40.279Z,7.99
2023-01-08T20:39:13.471Z,8.10
2023-01-08T20:41:50.077Z,7.99
2023-01-08T20:44:32.073Z,8.00
2023-01-08T20:47:01.693Z,8.03
2023-01-08T20:49:31.293Z,8.09
2023-01-08T20:52:01.551Z,8.18
2023-01-08T20:54:34.634Z,8.25
2023-01-08T20:57:02.161Z,8.35
2023-01-08T20:59:30.130Z,8.55
2023-01-08T21:02:01.505Z,8.67
2023-01-08T21:04:29.709Z,8.82
2023-01-08T21:06:57.271Z,8.89
2023-01-08T21:09:24.751Z,8.97
2023-01-08T21:11:52.292Z,8.93
2023-01-08T21:14:19.939Z,9.01
2023-01-08T21:16:47.694Z,9.10
2023-01-08T21:19:15.667Z,9.04
2023-01-08T21:21:43.476Z,8.99
2023-01-08T21:24:12.367Z,9.02
2023-01-08T21:26:46.496Z,8.99
2023-01-08T21:29:14.742Z,8.94
2023-01-08T21:31:43.248Z,8.95
2023-01-08T21:34:11.547Z,9.03
2023-01-08T21:36:39.322Z,9.07
2023-01-08T21:39:07.315Z,9.03
2023-01-08T21:41:53.166Z,9.01
2023-01-08T21:44:41.705Z,8.99
2023-01-08T21:47:12.214Z,8.94
2023-01-08T21:49:39.587Z,9.02
2023-01-08T21:52:25.557Z,9.07
2023-01-08T21:54:53.879Z,9.12
2023-01-08T21:57:21.487Z,9.12
2023-01-08T21:59:50.134Z,9.09
2023-01-08T22:02:20.071Z,9.08
2023-01-08T22:04:48.254Z,9.07
2023-01-08T22:07:16.037Z,9.05
2023-01-08T22:09:43.434Z,9.06
2023-01-08T22:12:10.981Z,9.10
2023-01-08T22:14:38.379Z,9.06
2023-01-08T22:17:08.575Z,9.05
2023-01-08T22:19:40.683Z,9.05
2023-01-08T22:22:10.690Z,9.06
2023-01-08T22:24:39.612Z,9.05
2023-01-08T22:27:08.751Z,9.05
2023-01-08T22:29:37.409Z,9.03
2023-01-08T22:32:05.189Z,9.04
2023-01-08T22:34:34.098Z,9.05
2023-01-08T22:37:01.740Z,9.05
2023-01-08T22:39:29.495Z,9.05
2023-01-08T22:41:57.176Z,9.07
2023-01-08T22:44:24.612Z,9.07
2023-01-08T22:46:51.974Z,9.09
2023-01-08T22:49:19.412Z,9.08
2023-01-08T22:51:46.731Z,9.07
2023-01-08T22:54:14.642Z,9.05
2023-01-08T22:56:41.940Z,9.01
2023-01-08T22:59:09.284Z,8.99
2023-01-08T23:01:36.710Z,8.97
2023-01-08T23:04:04.447Z,8.93
2023-01-08T23:06:32.423Z,8.93
2023-01-08T23:09:00.332Z,8.94
2023-01-08T23:11:27.925Z,8.91
2023-01-08T23:13:55.656Z,8.89
2023-01-08T23:16:25.317Z,8.87
2023-01-08T23:18:54.390Z,8.82
2023-01-08T23:21:24.043Z,8.76
2023-01-08T23:23:52.299Z,8.79
2023-01-08T23:29:29.695Z,8.83
2023-01-08T23:32:00.321Z,8.78
2023-01-08T23:34:27.749Z,8.70
2023-01-08T23:36:55.244Z,8.74
2023-01-08T23:39:26.612Z,8.79
2023-01-08T23:41:54.224Z,8.79
2023-01-08T23:44:21.717Z,8.73
2023-01-08T23:46:49.222Z,8.76
2023-01-08T23:49:16.684Z,8.76
2023-01-08T23:51:44.024Z,8.80
2023-01-08T23:54:12.415Z,8.75
2023-01-08T23:56:41.092Z,8.76
2023-01-08T23:59:08.766Z,8.76
